Terminal Aerodrome Forecast
Issued by NWS

Home | Current Version | Previous Version | Text Only | Print | Product List | Glossary On
Versions: 1 2 3 4 5 6 7 8 9 10 11 12 13 14 15 16 17 18 19 20 21 22 23 24 25 26 27 28 29
000
FTUS46 KOTX 241124
TAFCOE
TAF
KCOE 241124Z 2412/2512 21005KT P6SM SCT040 BKN060
     FM241600 23012G20KT P6SM SCT025 BKN040
     FM242000 23015G22KT P6SM BKN040 OVC080
     FM250300 21008KT P6SM SCT060
      AMD LTD TO CLD VIS AND WIND=

USA.gov is the U.S. government's official web portal to all federal, state and local government web resources and services.